sensor_id;sensor_type;location;lat;lon;timestamp;pressure;altitude;pressure_sealevel;temperature;humidity
28626;BME280;18905;42.668;23.364;2023-02-17T00:01:42;96031.75;;;2.42;100.00
28626;BME280;18905;42.668;23.364;2023-02-17T00:04:07;96020.13;;;2.48;100.00
28626;BME280;18905;42.668;23.364;2023-02-17T00:06:32;96019.56;;;2.46;100.00
28626;BME280;18905;42.668;23.364;2023-02-17T00:08:58;96020.78;;;2.22;100.00
28626;BME280;18905;42.668;23.364;2023-02-17T00:11:24;96018.28;;;2.32;100.00
28626;BME280;18905;42.668;23.364;2023-02-17T00:13:49;96013.59;;;2.39;100.00
28626;BME280;18905;42.668;23.364;2023-02-17T00:16:16;96017.09;;;2.23;100.00
28626;BME280;18905;42.668;23.364;2023-02-17T00:18:41;96015.38;;;2.17;100.00
28626;BME280;18905;42.668;23.364;2023-02-17T00:21:11;96018.53;;;2.30;100.00
28626;BME280;18905;42.668;23.364;2023-02-17T00:23:36;96021.34;;;2.24;100.00
28626;BME280;18905;42.668;23.364;2023-02-17T00:26:03;96009.16;;;2.28;100.00
28626;BME280;18905;42.668;23.364;2023-02-17T00:28:29;96012.00;;;2.21;100.00
28626;BME280;18905;42.668;23.364;2023-02-17T00:30:54;96007.31;;;2.12;100.00
28626;BME280;18905;42.668;23.364;2023-02-17T00:33:19;96000.28;;;2.06;100.00
28626;BME280;18905;42.668;23.364;2023-02-17T00:35:44;95991.91;;;2.14;100.00
28626;BME280;18905;42.668;23.364;2023-02-17T00:38:10;95996.03;;;2.05;100.00
28626;BME280;18905;42.668;23.364;2023-02-17T00:40:35;95994.22;;;2.10;100.00
28626;BME280;18905;42.668;23.364;2023-02-17T00:43:00;95990.25;;;2.13;100.00
28626;BME280;18905;42.668;23.364;2023-02-17T00:45:26;95987.50;;;1.14;100.00
28626;BME280;18905;42.668;23.364;2023-02-17T00:47:51;95995.16;;;1.55;100.00
28626;BME280;18905;42.668;23.364;2023-02-17T00:50:16;95994.22;;;1.77;100.00
28626;BME280;18905;42.668;23.364;2023-02-17T00:52:41;95995.53;;;1.91;100.00
28626;BME280;18905;42.668;23.364;2023-02-17T00:55:07;95994.88;;;2.01;100.00
28626;BME280;18905;42.668;23.364;2023-02-17T00:57:32;95992.13;;;2.12;100.00
28626;BME280;18905;42.668;23.364;2023-02-17T00:59:57;95993.56;;;2.20;100.00
28626;BME280;18905;42.668;23.364;2023-02-17T01:02:23;95995.34;;;2.31;100.00
28626;BME280;18905;42.668;23.364;2023-02-17T01:04:48;95994.25;;;2.27;100.00
28626;BME280;18905;42.668;23.364;2023-02-17T01:07:13;95985.09;;;2.23;100.00
28626;BME280;18905;42.668;23.364;2023-02-17T01:09:38;95989.94;;;2.26;100.00
28626;BME280;18905;42.668;23.364;2023-02-17T01:12:04;95990.34;;;2.34;100.00
28626;BME280;18905;42.668;23.364;2023-02-17T01:14:29;95979.19;;;2.37;100.00
28626;BME280;18905;42.668;23.364;2023-02-17T01:16:54;95981.13;;;2.42;100.00
28626;BME280;18905;42.668;23.364;2023-02-17T01:19:20;95985.28;;;2.54;100.00
28626;BME280;18905;42.668;23.364;2023-02-17T01:21:45;95974.31;;;2.51;100.00
28626;BME280;18905;42.668;23.364;2023-02-17T01:24:11;95975.03;;;2.46;100.00
28626;BME280;18905;42.668;23.364;2023-02-17T01:26:36;95974.06;;;2.52;100.00
28626;BME280;18905;42.668;23.364;2023-02-17T01:29:03;95972.03;;;2.21;100.00
28626;BME280;18905;42.668;23.364;2023-02-17T01:31:29;95970.56;;;2.30;100.00
28626;BME280;18905;42.668;23.364;2023-02-17T01:33:55;95961.03;;;2.34;100.00
28626;BME280;18905;42.668;23.364;2023-02-17T01:36:20;95964.66;;;2.28;100.00
28626;BME280;18905;42.668;23.364;2023-02-17T01:38:46;95965.00;;;2.32;100.00
28626;BME280;18905;42.668;23.364;2023-02-17T01:41:12;95964.41;;;2.30;100.00
28626;BME280;18905;42.668;23.364;2023-02-17T01:43:37;95961.59;;;2.20;100.00
28626;BME280;18905;42.668;23.364;2023-02-17T01:46:03;95969.53;;;1.98;100.00
28626;BME280;18905;42.668;23.364;2023-02-17T01:48:46;95968.22;;;1.23;100.00
28626;BME280;18905;42.668;23.364;2023-02-17T01:51:14;95965.31;;;0.69;100.00
28626;BME280;18905;42.668;23.364;2023-02-17T01:53:42;95974.81;;;0.65;100.00
28626;BME280;18905;42.668;23.364;2023-02-17T01:56:09;95970.44;;;0.59;100.00
28626;BME280;18905;42.668;23.364;2023-02-17T01:58:36;95985.03;;;0.22;100.00
28626;BME280;18905;42.668;23.364;2023-02-17T02:01:04;95975.78;;;0.13;100.00
28626;BME280;18905;42.668;23.364;2023-02-17T02:03:30;95971.16;;;-0.04;100.00
28626;BME280;18905;42.668;23.364;2023-02-17T02:05:56;95977.97;;;-0.08;100.00
28626;BME280;18905;42.668;23.364;2023-02-17T02:08:22;95970.81;;;0.04;100.00
28626;BME280;18905;42.668;23.364;2023-02-17T02:10:48;95981.44;;;-0.07;100.00
28626;BME280;18905;42.668;23.364;2023-02-17T02:13:14;95967.47;;;-0.14;100.00
28626;BME280;18905;42.668;23.364;2023-02-17T02:15:47;95964.13;;;0.13;100.00
28626;BME280;18905;42.668;23.364;2023-02-17T02:23:42;95967.75;;;0.70;100.00
28626;BME280;18905;42.668;23.364;2023-02-17T02:34:06;95958.38;;;1.07;100.00
28626;BME280;18905;42.668;23.364;2023-02-17T02:36:33;95961.81;;;1.19;100.00
28626;BME280;18905;42.668;23.364;2023-02-17T02:39:08;95962.31;;;1.33;100.00
28626;BME280;18905;42.668;23.364;2023-02-17T02:41:35;95963.84;;;1.45;100.00
28626;BME280;18905;42.668;23.364;2023-02-17T02:44:03;95968.38;;;1.45;100.00
28626;BME280;18905;42.668;23.364;2023-02-17T02:46:29;95967.78;;;1.26;100.00
28626;BME280;18905;42.668;23.364;2023-02-17T02:48:54;95958.34;;;1.35;100.00
28626;BME280;18905;42.668;23.364;2023-02-17T02:56:25;95966.53;;;1.62;100.00
28626;BME280;18905;42.668;23.364;2023-02-17T03:01:29;95972.88;;;1.44;100.00
28626;BME280;18905;42.668;23.364;2023-02-17T03:06:34;95962.09;;;1.67;100.00
28626;BME280;18905;42.668;23.364;2023-02-17T03:09:05;95972.53;;;1.69;100.00
28626;BME280;18905;42.668;23.364;2023-02-17T03:11:33;95966.22;;;1.75;100.00
28626;BME280;18905;42.668;23.364;2023-02-17T03:14:05;95965.81;;;1.83;100.00
28626;BME280;18905;42.668;23.364;2023-02-17T03:16:32;95963.09;;;1.94;100.00
28626;BME280;18905;42.668;23.364;2023-02-17T03:18:58;95959.38;;;1.95;100.00
28626;BME280;18905;42.668;23.364;2023-02-17T03:21:28;95958.91;;;1.82;100.00
28626;BME280;18905;42.668;23.364;2023-02-17T03:23:56;95958.31;;;1.80;100.00
28626;BME280;18905;42.668;23.364;2023-02-17T03:26:22;95969.13;;;1.90;100.00
28626;BME280;18905;42.668;23.364;2023-02-17T03:28:47;95972.75;;;1.84;100.00
28626;BME280;18905;42.668;23.364;2023-02-17T03:31:12;95975.50;;;1.89;100.00
28626;BME280;18905;42.668;23.364;2023-02-17T03:33:38;95969.69;;;1.92;100.00
28626;BME280;18905;42.668;23.364;2023-02-17T03:36:03;95968.09;;;1.91;100.00
28626;BME280;18905;42.668;23.364;2023-02-17T03:38:29;95977.03;;;2.01;100.00
28626;BME280;18905;42.668;23.364;2023-02-17T03:40:54;95972.75;;;2.00;100.00
28626;BME280;18905;42.668;23.364;2023-02-17T03:43:20;95971.47;;;2.03;100.00
28626;BME280;18905;42.668;23.364;2023-02-17T03:45:45;95956.13;;;2.10;100.00
28626;BME280;18905;42.668;23.364;2023-02-17T03:48:11;95965.56;;;2.17;100.00
28626;BME280;18905;42.668;23.364;2023-02-17T03:50:36;95954.97;;;2.22;100.00
28626;BME280;18905;42.668;23.364;2023-02-17T03:53:02;95956.44;;;2.13;100.00
28626;BME280;18905;42.668;23.364;2023-02-17T03:55:29;95954.94;;;1.84;100.00
28626;BME280;18905;42.668;23.364;2023-02-17T03:57:54;95952.44;;;1.78;100.00
28626;BME280;18905;42.668;23.364;2023-02-17T04:00:19;95955.09;;;1.78;100.00
28626;BME280;18905;42.668;23.364;2023-02-17T04:02:45;95952.28;;;1.68;100.00
28626;BME280;18905;42.668;23.364;2023-02-17T04:05:11;95948.25;;;1.82;100.00
28626;BME280;18905;42.668;23.364;2023-02-17T04:07:37;95962.59;;;1.81;100.00
28626;BME280;18905;42.668;23.364;2023-02-17T04:10:03;95964.94;;;1.77;100.00
28626;BME280;18905;42.668;23.364;2023-02-17T04:12:28;95965.44;;;1.74;100.00
28626;BME280;18905;42.668;23.364;2023-02-17T04:14:54;95969.16;;;1.29;100.00
28626;BME280;18905;42.668;23.364;2023-02-17T04:17:19;95962.19;;;1.56;100.00
28626;BME280;18905;42.668;23.364;2023-02-17T04:19:45;95945.16;;;1.73;100.00
28626;BME280;18905;42.668;23.364;2023-02-17T04:22:10;95957.59;;;1.68;100.00
28626;BME280;18905;42.668;23.364;2023-02-17T04:24:35;95957.53;;;1.63;100.00
28626;BME280;18905;42.668;23.364;2023-02-17T04:27:01;95970.38;;;1.38;100.00
28626;BME280;18905;42.668;23.364;2023-02-17T04:29:27;95969.03;;;1.52;100.00
28626;BME280;18905;42.668;23.364;2023-02-17T04:31:52;95967.91;;;1.64;100.00
28626;BME280;18905;42.668;23.364;2023-02-17T04:34:18;95969.19;;;1.62;100.00
28626;BME280;18905;42.668;23.364;2023-02-17T04:36:43;95950.25;;;1.75;100.00
28626;BME280;18905;42.668;23.364;2023-02-17T04:39:09;95965.16;;;1.76;100.00
28626;BME280;18905;42.668;23.364;2023-02-17T04:41:34;95967.44;;;1.84;100.00
28626;BME280;18905;42.668;23.364;2023-02-17T04:44:00;95964.22;;;1.82;100.00
28626;BME280;18905;42.668;23.364;2023-02-17T04:46:25;95962.94;;;1.84;100.00
28626;BME280;18905;42.668;23.364;2023-02-17T04:48:50;95967.88;;;1.48;100.00
28626;BME280;18905;42.668;23.364;2023-02-17T04:51:16;95970.47;;;1.59;100.00
28626;BME280;18905;42.668;23.364;2023-02-17T04:53:41;95961.41;;;1.72;100.00
28626;BME280;18905;42.668;23.364;2023-02-17T04:56:07;95963.63;;;1.80;100.00
28626;BME280;18905;42.668;23.364;2023-02-17T04:58:32;95950.81;;;1.77;100.00
28626;BME280;18905;42.668;23.364;2023-02-17T05:00:58;95960.50;;;1.66;100.00
28626;BME280;18905;42.668;23.364;2023-02-17T05:03:24;95962.69;;;3.00;100.00
28626;BME280;18905;42.668;23.364;2023-02-17T05:05:50;95980.78;;;4.04;100.00
28626;BME280;18905;42.668;23.364;2023-02-17T05:08:15;95988.59;;;3.26;100.00
28626;BME280;18905;42.668;23.364;2023-02-17T05:10:41;95993.56;;;2.20;100.00
28626;BME280;18905;42.668;23.364;2023-02-17T05:13:06;95990.91;;;3.44;100.00
28626;BME280;18905;42.668;23.364;2023-02-17T05:15:32;95981.19;;;4.17;100.00
28626;BME280;18905;42.668;23.364;2023-02-17T05:17:57;95985.44;;;6.53;100.00
28626;BME280;18905;42.668;23.364;2023-02-17T05:20:23;95984.03;;;5.70;100.00
28626;BME280;18905;42.668;23.364;2023-02-17T05:22:48;95983.69;;;3.39;100.00
28626;BME280;18905;42.668;23.364;2023-02-17T05:25:13;96001.06;;;2.77;100.00
28626;BME280;18905;42.668;23.364;2023-02-17T05:27:39;95998.09;;;2.36;100.00
28626;BME280;18905;42.668;23.364;2023-02-17T05:30:04;96000.19;;;2.34;100.00
28626;BME280;18905;42.668;23.364;2023-02-17T05:32:30;95993.47;;;2.48;100.00
28626;BME280;18905;42.668;23.364;2023-02-17T05:34:55;96007.75;;;2.58;100.00
28626;BME280;18905;42.668;23.364;2023-02-17T05:37:20;96005.16;;;2.63;100.00
28626;BME280;18905;42.668;23.364;2023-02-17T05:39:46;96018.06;;;2.71;100.00
28626;BME280;18905;42.668;23.364;2023-02-17T05:42:12;96009.53;;;2.74;100.00
28626;BME280;18905;42.668;23.364;2023-02-17T05:44:37;96024.34;;;2.82;100.00
28626;BME280;18905;42.668;23.364;2023-02-17T05:47:03;96016.22;;;2.93;100.00
28626;BME280;18905;42.668;23.364;2023-02-17T05:49:28;96026.25;;;2.86;100.00
28626;BME280;18905;42.668;23.364;2023-02-17T05:51:54;96023.34;;;2.88;100.00
28626;BME280;18905;42.668;23.364;2023-02-17T05:54:19;96026.56;;;2.90;100.00
28626;BME280;18905;42.668;23.364;2023-02-17T05:56:45;96021.38;;;3.00;100.00
28626;BME280;18905;42.668;23.364;2023-02-17T05:59:10;96026.31;;;3.13;100.00
28626;BME280;18905;42.668;23.364;2023-02-17T06:01:36;96020.63;;;3.26;100.00
28626;BME280;18905;42.668;23.364;2023-02-17T06:04:01;96019.81;;;3.25;100.00
28626;BME280;18905;42.668;23.364;2023-02-17T06:06:27;96022.16;;;3.22;100.00
28626;BME280;18905;42.668;23.364;2023-02-17T06:08:52;96022.75;;;3.24;100.00
28626;BME280;18905;42.668;23.364;2023-02-17T06:11:19;96034.13;;;3.41;100.00
28626;BME280;18905;42.668;23.364;2023-02-17T06:13:44;96028.41;;;3.54;100.00
28626;BME280;18905;42.668;23.364;2023-02-17T06:16:10;96036.41;;;3.75;100.00
28626;BME280;18905;42.668;23.364;2023-02-17T06:18:35;96037.84;;;3.88;100.00
28626;BME280;18905;42.668;23.364;2023-02-17T06:21:01;96029.16;;;4.02;100.00
28626;BME280;18905;42.668;23.364;2023-02-17T06:23:26;96035.44;;;4.18;100.00
28626;BME280;18905;42.668;23.364;2023-02-17T06:25:52;96031.09;;;4.43;100.00
28626;BME280;18905;42.668;23.364;2023-02-17T06:28:17;96028.28;;;5.06;100.00
28626;BME280;18905;42.668;23.364;2023-02-17T06:30:43;96042.16;;;5.65;100.00
28626;BME280;18905;42.668;23.364;2023-02-17T06:33:09;96034.25;;;6.55;100.00
28626;BME280;18905;42.668;23.364;2023-02-17T06:35:34;96052.06;;;8.03;87.11
28626;BME280;18905;42.668;23.364;2023-02-17T06:38:00;96042.66;;;8.72;77.87
28626;BME280;18905;42.668;23.364;2023-02-17T06:40:25;96044.00;;;9.03;67.87
28626;BME280;18905;42.668;23.364;2023-02-17T06:42:50;96038.16;;;8.96;63.00
28626;BME280;18905;42.668;23.364;2023-02-17T06:45:16;96050.44;;;9.07;62.45
28626;BME280;18905;42.668;23.364;2023-02-17T06:47:41;96044.69;;;9.42;60.36
28626;BME280;18905;42.668;23.364;2023-02-17T06:50:07;96055.59;;;10.35;58.65
28626;BME280;18905;42.668;23.364;2023-02-17T06:52:33;96055.47;;;10.03;55.87
28626;BME280;18905;42.668;23.364;2023-02-17T06:54:58;96053.75;;;9.93;74.49
28626;BME280;18905;42.668;23.364;2023-02-17T06:57:24;96057.22;;;9.75;59.18
28626;BME280;18905;42.668;23.364;2023-02-17T06:59:49;96059.47;;;9.45;58.23
28626;BME280;18905;42.668;23.364;2023-02-17T07:02:15;96052.53;;;9.81;57.92
28626;BME280;18905;42.668;23.364;2023-02-17T07:04:40;96050.88;;;9.85;56.88
28626;BME280;18905;42.668;23.364;2023-02-17T07:07:06;96055.97;;;9.68;57.27
28626;BME280;18905;42.668;23.364;2023-02-17T07:09:32;96057.69;;;10.01;56.02
28626;BME280;18905;42.668;23.364;2023-02-17T07:11:57;96061.03;;;10.67;54.92
28626;BME280;18905;42.668;23.364;2023-02-17T07:14:25;96064.72;;;10.57;54.05
28626;BME280;18905;42.668;23.364;2023-02-17T07:16:51;96056.25;;;10.64;54.38
28626;BME280;18905;42.668;23.364;2023-02-17T07:19:16;96052.81;;;10.90;53.49
28626;BME280;18905;42.668;23.364;2023-02-17T07:21:42;96064.34;;;10.64;53.49
28626;BME280;18905;42.668;23.364;2023-02-17T07:24:08;96069.09;;;11.17;52.69
28626;BME280;18905;42.668;23.364;2023-02-17T07:26:34;96057.38;;;11.22;51.90
28626;BME280;18905;42.668;23.364;2023-02-17T07:29:00;96072.97;;;11.43;52.05
28626;BME280;18905;42.668;23.364;2023-02-17T07:31:26;96065.75;;;12.07;50.32
28626;BME280;18905;42.668;23.364;2023-02-17T07:33:52;96070.13;;;12.87;49.25
28626;BME280;18905;42.668;23.364;2023-02-17T07:36:17;96069.81;;;12.67;47.64
28626;BME280;18905;42.668;23.364;2023-02-17T07:38:42;96067.28;;;13.36;47.73
28626;BME280;18905;42.668;23.364;2023-02-17T07:41:12;96075.78;;;14.21;45.39
28626;BME280;18905;42.668;23.364;2023-02-17T07:43:38;96066.81;;;13.73;45.65
28626;BME280;18905;42.668;23.364;2023-02-17T07:46:04;96075.56;;;13.09;46.36
28626;BME280;18905;42.668;23.364;2023-02-17T07:48:29;96064.63;;;14.91;58.57
28626;BME280;18905;42.668;23.364;2023-02-17T07:50:55;96067.53;;;17.02;52.09
28626;BME280;18905;42.668;23.364;2023-02-17T07:53:20;96064.31;;;18.85;46.10
28626;BME280;18905;42.668;23.364;2023-02-17T07:55:45;96064.47;;;20.02;44.05
28626;BME280;18905;42.668;23.364;2023-02-17T07:58:11;96060.44;;;19.53;39.20
28626;BME280;18905;42.668;23.364;2023-02-17T08:00:36;96061.13;;;20.09;39.43
28626;BME280;18905;42.668;23.364;2023-02-17T08:03:01;96054.81;;;19.77;38.00
28626;BME280;18905;42.668;23.364;2023-02-17T08:05:27;96066.66;;;20.59;39.20
28626;BME280;18905;42.668;23.364;2023-02-17T08:07:52;96068.78;;;19.17;36.55
28626;BME280;18905;42.668;23.364;2023-02-17T08:10:37;96061.66;;;18.01;37.17
28626;BME280;18905;42.668;23.364;2023-02-17T08:13:22;96071.41;;;17.54;37.23
28626;BME280;18905;42.668;23.364;2023-02-17T08:15:47;96060.47;;;15.73;39.87
28626;BME280;18905;42.668;23.364;2023-02-17T08:18:13;96056.47;;;14.99;41.19
28626;BME280;18905;42.668;23.364;2023-02-17T08:20:38;96059.84;;;14.62;42.14
28626;BME280;18905;42.668;23.364;2023-02-17T08:23:03;96058.53;;;15.19;41.18
28626;BME280;18905;42.668;23.364;2023-02-17T08:25:32;96056.63;;;14.26;43.04
28626;BME280;18905;42.668;23.364;2023-02-17T08:27:58;96051.97;;;14.27;43.02
28626;BME280;18905;42.668;23.364;2023-02-17T08:30:23;96053.75;;;14.40;43.03
28626;BME280;18905;42.668;23.364;2023-02-17T08:32:48;96055.38;;;14.49;42.78
28626;BME280;18905;42.668;23.364;2023-02-17T08:35:14;96052.13;;;14.22;43.25
28626;BME280;18905;42.668;23.364;2023-02-17T08:37:39;96049.16;;;14.01;43.88
28626;BME280;18905;42.668;23.364;2023-02-17T08:40:05;96046.97;;;14.03;44.04
28626;BME280;18905;42.668;23.364;2023-02-17T08:42:31;96051.53;;;14.59;43.15
28626;BME280;18905;42.668;23.364;2023-02-17T08:44:56;96049.38;;;15.49;41.68
28626;BME280;18905;42.668;23.364;2023-02-17T08:47:21;96048.56;;;15.32;41.63
28626;BME280;18905;42.668;23.364;2023-02-17T08:49:46;96049.00;;;15.59;41.25
28626;BME280;18905;42.668;23.364;2023-02-17T08:52:12;96048.88;;;15.56;41.13
28626;BME280;18905;42.668;23.364;2023-02-17T08:54:37;96054.22;;;15.01;41.66
28626;BME280;18905;42.668;23.364;2023-02-17T08:57:03;96044.31;;;14.20;42.76
28626;BME280;18905;42.668;23.364;2023-02-17T08:59:28;96042.88;;;14.23;43.00
28626;BME280;18905;42.668;23.364;2023-02-17T09:01:54;96046.56;;;14.69;42.31
28626;BME280;18905;42.668;23.364;2023-02-17T09:04:19;96041.13;;;14.86;42.28
28626;BME280;18905;42.668;23.364;2023-02-17T09:06:46;96043.38;;;14.84;41.93
28626;BME280;18905;42.668;23.364;2023-02-17T09:09:13;96036.00;;;14.85;41.68
28626;BME280;18905;42.668;23.364;2023-02-17T09:11:39;96041.13;;;15.03;41.36
28626;BME280;18905;42.668;23.364;2023-02-17T09:14:04;96038.53;;;15.15;41.56
28626;BME280;18905;42.668;23.364;2023-02-17T09:16:30;96033.94;;;14.73;41.71
28626;BME280;18905;42.668;23.364;2023-02-17T09:18:55;96026.47;;;15.33;53.13
28626;BME280;18905;42.668;23.364;2023-02-17T09:21:20;96028.81;;;15.98;50.28
28626;BME280;18905;42.668;23.364;2023-02-17T09:23:46;96025.09;;;15.10;41.97
28626;BME280;18905;42.668;23.364;2023-02-17T09:26:12;96024.34;;;14.50;43.39
28626;BME280;18905;42.668;23.364;2023-02-17T09:28:38;96022.28;;;14.39;44.00
28626;BME280;18905;42.668;23.364;2023-02-17T09:31:11;96024.84;;;14.52;42.92
28626;BME280;18905;42.668;23.364;2023-02-17T09:33:36;96031.03;;;14.36;43.17
28626;BME280;18905;42.668;23.364;2023-02-17T09:36:03;96024.50;;;14.79;43.04
28626;BME280;18905;42.668;23.364;2023-02-17T09:38:28;96028.72;;;14.04;44.36
28626;BME280;18905;42.668;23.364;2023-02-17T09:40:53;96026.09;;;14.46;43.82
28626;BME280;18905;42.668;23.364;2023-02-17T09:43:24;96022.91;;;14.78;43.50
28626;BME280;18905;42.668;23.364;2023-02-17T09:46:01;96023.22;;;14.68;42.96
28626;BME280;18905;42.668;23.364;2023-02-17T09:48:30;96012.44;;;14.04;43.07
28626;BME280;18905;42.668;23.364;2023-02-17T09:50:57;96029.41;;;15.20;40.16
28626;BME280;18905;42.668;23.364;2023-02-17T09:55:50;96007.50;;;16.49;35.89
28626;BME280;18905;42.668;23.364;2023-02-17T10:00:43;96007.56;;;16.61;35.08
28626;BME280;18905;42.668;23.364;2023-02-17T10:03:18;96009.84;;;16.92;34.61
28626;BME280;18905;42.668;23.364;2023-02-17T10:05:45;96010.56;;;16.48;34.48
28626;BME280;18905;42.668;23.364;2023-02-17T10:08:16;95998.09;;;17.12;34.74
28626;BME280;18905;42.668;23.364;2023-02-17T10:13:11;96002.31;;;16.56;34.60
28626;BME280;18905;42.668;23.364;2023-02-17T10:15:39;95994.25;;;16.60;34.15
28626;BME280;18905;42.668;23.364;2023-02-17T10:18:15;95993.53;;;16.51;33.91
28626;BME280;18905;42.668;23.364;2023-02-17T10:20:43;95988.72;;;17.33;33.64
28626;BME280;18905;42.668;23.364;2023-02-17T10:23:15;95987.56;;;16.08;35.16
28626;BME280;18905;42.668;23.364;2023-02-17T10:28:07;95977.72;;;16.44;34.30
28626;BME280;18905;42.668;23.364;2023-02-17T10:30:43;95972.97;;;16.53;34.16
28626;BME280;18905;42.668;23.364;2023-02-17T10:33:22;95966.41;;;16.87;34.12
28626;BME280;18905;42.668;23.364;2023-02-17T10:35:51;95965.38;;;16.79;33.30
28626;BME280;18905;42.668;23.364;2023-02-17T10:40:50;95968.69;;;16.85;33.29
28626;BME280;18905;42.668;23.364;2023-02-17T10:43:21;95963.22;;;15.53;34.30
28626;BME280;18905;42.668;23.364;2023-02-17T10:45:49;95954.56;;;15.51;34.64
28626;BME280;18905;42.668;23.364;2023-02-17T10:50:41;95955.91;;;15.95;34.33
28626;BME280;18905;42.668;23.364;2023-02-17T10:53:15;95951.81;;;16.71;33.90
28626;BME280;18905;42.668;23.364;2023-02-17T11:00:55;95939.69;;;16.48;33.92
28626;BME280;18905;42.668;23.364;2023-02-17T11:03:30;95944.53;;;16.95;33.66
28626;BME280;18905;42.668;23.364;2023-02-17T11:06:13;95941.66;;;17.48;33.73
28626;BME280;18905;42.668;23.364;2023-02-17T11:08:42;95950.69;;;17.16;33.54
28626;BME280;18905;42.668;23.364;2023-02-17T11:11:16;95936.91;;;17.45;33.14
28626;BME280;18905;42.668;23.364;2023-02-17T11:13:43;95947.16;;;16.71;33.66
28626;BME280;18905;42.668;23.364;2023-02-17T11:19:52;95939.13;;;16.75;34.43
28626;BME280;18905;42.668;23.364;2023-02-17T11:22:04;95926.53;;;16.94;34.25
28626;BME280;18905;42.668;23.364;2023-02-17T11:24:30;95929.69;;;17.29;33.05
28626;BME280;18905;42.668;23.364;2023-02-17T11:26:58;95928.56;;;16.85;34.34
28626;BME280;18905;42.668;23.364;2023-02-17T11:29:24;95924.06;;;17.01;33.99
28626;BME280;18905;42.668;23.364;2023-02-17T11:34:29;95923.50;;;17.08;33.57
28626;BME280;18905;42.668;23.364;2023-02-17T11:37:18;95921.44;;;17.05;33.66
28626;BME280;18905;42.668;23.364;2023-02-17T11:39:46;95926.38;;;16.46;33.95
28626;BME280;18905;42.668;23.364;2023-02-17T11:42:15;95910.81;;;16.06;35.10
28626;BME280;18905;42.668;23.364;2023-02-17T11:44:41;95899.97;;;16.18;34.86
28626;BME280;18905;42.668;23.364;2023-02-17T11:47:25;95914.19;;;16.64;34.46
28626;BME280;18905;42.668;23.364;2023-02-17T12:03:27;95894.56;;;16.71;34.72
28626;BME280;18905;42.668;23.364;2023-02-17T12:14:16;95876.78;;;17.09;34.15
28626;BME280;18905;42.668;23.364;2023-02-17T12:22:31;95879.97;;;17.35;34.16
28626;BME280;18905;42.668;23.364;2023-02-17T12:32:12;95856.25;;;16.67;34.29
28626;BME280;18905;42.668;23.364;2023-02-17T12:34:43;95858.41;;;16.62;34.51
28626;BME280;18905;42.668;23.364;2023-02-17T12:37:16;95861.19;;;16.98;34.12
28626;BME280;18905;42.668;23.364;2023-02-17T12:39:45;95850.84;;;17.15;33.62
28626;BME280;18905;42.668;23.364;2023-02-17T12:44:51;95839.81;;;17.36;34.53
28626;BME280;18905;42.668;23.364;2023-02-17T12:48:01;95841.31;;;17.09;33.94
28626;BME280;18905;42.668;23.364;2023-02-17T12:52:45;95835.25;;;16.80;34.16
28626;BME280;18905;42.668;23.364;2023-02-17T12:55:29;95841.25;;;16.85;34.26
28626;BME280;18905;42.668;23.364;2023-02-17T12:58:00;95833.84;;;16.74;34.44
28626;BME280;18905;42.668;23.364;2023-02-17T13:00:30;95829.06;;;16.59;34.97
28626;BME280;18905;42.668;23.364;2023-02-17T13:03:00;95825.78;;;16.65;34.54
28626;BME280;18905;42.668;23.364;2023-02-17T13:05:27;95830.75;;;16.51;34.70
28626;BME280;18905;42.668;23.364;2023-02-17T13:07:58;95824.88;;;16.29;35.11
28626;BME280;18905;42.668;23.364;2023-02-17T13:13:32;95835.78;;;16.29;35.66
28626;BME280;18905;42.668;23.364;2023-02-17T13:15:43;95831.91;;;16.62;35.23
28626;BME280;18905;42.668;23.364;2023-02-17T13:18:28;95825.41;;;16.55;34.96
28626;BME280;18905;42.668;23.364;2023-02-17T13:20:55;95819.16;;;16.42;34.87
28626;BME280;18905;42.668;23.364;2023-02-17T13:23:28;95814.84;;;16.21;34.49
28626;BME280;18905;42.668;23.364;2023-02-17T13:26:03;95806.63;;;16.09;34.73
28626;BME280;18905;42.668;23.364;2023-02-17T13:28:35;95811.94;;;16.70;34.69
28626;BME280;18905;42.668;23.364;2023-02-17T13:31:14;95817.16;;;16.75;34.40
28626;BME280;18905;42.668;23.364;2023-02-17T13:33:42;95815.56;;;16.74;33.91
28626;BME280;18905;42.668;23.364;2023-02-17T13:36:15;95809.31;;;16.62;33.84
28626;BME280;18905;42.668;23.364;2023-02-17T13:38:50;95806.72;;;16.77;33.46
28626;BME280;18905;42.668;23.364;2023-02-17T13:41:15;95815.22;;;16.64;33.47
28626;BME280;18905;42.668;23.364;2023-02-17T13:43:41;95821.22;;;16.57;33.91
28626;BME280;18905;42.668;23.364;2023-02-17T13:46:08;95811.22;;;16.61;33.84
28626;BME280;18905;42.668;23.364;2023-02-17T13:48:39;95811.38;;;16.65;34.46
28626;BME280;18905;42.668;23.364;2023-02-17T13:51:05;95805.81;;;16.97;33.48
28626;BME280;18905;42.668;23.364;2023-02-17T13:53:32;95813.91;;;16.94;33.15
28626;BME280;18905;42.668;23.364;2023-02-17T13:56:05;95818.22;;;16.95;33.24
28626;BME280;18905;42.668;23.364;2023-02-17T13:58:38;95814.22;;;16.80;32.86
28626;BME280;18905;42.668;23.364;2023-02-17T14:01:04;95809.28;;;16.50;32.37
28626;BME280;18905;42.668;23.364;2023-02-17T14:03:34;95805.09;;;16.20;32.15
28626;BME280;18905;42.668;23.364;2023-02-17T14:06:00;95804.94;;;16.16;31.90
28626;BME280;18905;42.668;23.364;2023-02-17T14:10:54;95797.81;;;15.91;32.58
28626;BME280;18905;42.668;23.364;2023-02-17T14:13:20;95809.97;;;15.94;33.49
28626;BME280;18905;42.668;23.364;2023-02-17T14:15:56;95805.25;;;15.62;34.69
28626;BME280;18905;42.668;23.364;2023-02-17T14:21:00;95809.09;;;15.32;35.77
28626;BME280;18905;42.668;23.364;2023-02-17T14:23:25;95813.69;;;15.48;35.88
28626;BME280;18905;42.668;23.364;2023-02-17T14:25:51;95804.31;;;15.78;35.13
28626;BME280;18905;42.668;23.364;2023-02-17T14:28:19;95823.50;;;15.41;35.63